Portada
METAR-TAF:

METAR-TAF

Aeroports :

Khajuraho, Índia

latitud: 24-49-02N, longitud: 79-55-07E, altitud: 222 m

Observació

L'informe es va fer fa 13 hores i 17 minuts, a les 12:00 UTC
Vent 3 kt del Oest/Sud-Oest
Temperatura 31°C
Humitat 79%
Pressió 993 hPa
Visibilitat: 5000 m
Núvols disperses a una alçada de 1800 ft
Cel cobert a una alçada de 8000 ft
calitja

METAR: VEKO 151200Z 25003KT 5000 HZ SCT018 OVC080 31/27 Q0993

Hora: 06:47 (01:17 UTC)

Pronòstic

L'informe es va fer fa 2 hores i 17 minuts, a les 23:00 UTC
Pronòstic vàlid del 16 a les 00 UTC al 16 a les 09 UTC
Vent 10 kt del Oest
Visibilitat: 5000 m
Núvols disperses a una alçada de 2000 ft
Cel ennuvolat a una alçada de 10000 ft
calitja
Evolucionant progressivament
l' 16 a les 04 UTC al 16 a les 06 UTC
Vent 10 kt del Oest
Visibilitat: 6000 m
Núvols disperses a una alçada de 2500 ft
Cel ennuvolat a una alçada de 10000 ft

TAF: VEKO 152300Z 1600/1609 27010KT 5000 HZ SCT020 BKN100 BECMG 1604/1606 27010KT 6000 SCT025 BKN100

Observacions i pronòstics meteorològics de més de 4000 aeroports (METAR i TAF).

Les estacions disponibles són els punts grocs i vermells al mapa.

Posi el ratolí al punt desitjat per veure el nom de l'estació.

Feu clic per veure les observacions i els pronòstics meteorològics.

Per canviar el mapa: feu clic els botons verds amb una creu de color negre per apropar; al botó verd amb un guió per allunyar la imatge; o en les fletxes verdes per a mapes adjacents.


METAR-TAF: